createdAt,value
2018-05-03T00:01:23.564Z,52.70
2018-05-03T00:03:51.122Z,52.30
2018-05-03T00:06:18.708Z,54.60
2018-05-03T00:08:46.271Z,53.70
2018-05-03T00:11:13.850Z,56.10
2018-05-03T00:13:41.402Z,54.50
2018-05-03T00:16:08.982Z,53.20
2018-05-03T00:18:36.538Z,52.70
2018-05-03T00:21:04.118Z,53.70
2018-05-03T00:23:31.674Z,52.80
2018-05-03T00:25:59.230Z,53.10
2018-05-03T00:28:26.805Z,56.20
2018-05-03T00:30:54.366Z,54.70
2018-05-03T00:33:21.940Z,54.90
2018-05-03T00:35:50.254Z,54.70
2018-05-03T00:38:17.833Z,54.60
2018-05-03T00:40:45.392Z,52.40
2018-05-03T00:43:12.970Z,54.50
2018-05-03T00:45:40.521Z,53.60
2018-05-03T00:48:08.138Z,55.60
2018-05-03T00:50:35.688Z,55.90
2018-05-03T00:53:03.266Z,54.80
2018-05-03T00:55:30.821Z,56.70
2018-05-03T00:57:59.119Z,54.40
2018-05-03T01:03:00.689Z,55.50
2018-05-03T01:05:28.306Z,55.30
2018-05-03T01:07:55.884Z,55.00
2018-05-03T01:10:23.429Z,56.40
2018-05-03T01:12:51.005Z,58.10
2018-05-03T01:15:18.559Z,56.00
2018-05-03T01:17:46.137Z,55.00
2018-05-03T01:20:13.697Z,56.20
2018-05-03T01:22:41.278Z,55.00
2018-05-03T01:25:08.837Z,55.70
2018-05-03T01:27:36.412Z,57.10
2018-05-03T01:30:04.742Z,56.90
2018-05-03T01:32:32.294Z,57.00
2018-05-03T01:35:11.718Z,56.10
2018-05-03T01:37:39.297Z,58.30
2018-05-03T01:40:06.842Z,57.30
2018-05-03T01:42:34.395Z,55.30
2018-05-03T01:45:01.985Z,56.70
2018-05-03T01:47:29.551Z,55.50
2018-05-03T01:49:57.149Z,56.70
2018-05-03T01:52:24.707Z,60.30
2018-05-03T01:54:52.277Z,56.50
2018-05-03T01:57:20.595Z,56.50
2018-05-03T01:59:48.179Z,56.60
2018-05-03T02:02:15.741Z,57.40
2018-05-03T02:04:43.327Z,59.50
2018-05-03T02:07:10.882Z,61.20
2018-05-03T02:09:39.229Z,61.50
2018-05-03T02:12:06.782Z,61.60
2018-05-03T02:14:34.371Z,59.90
2018-05-03T02:17:02.696Z,58.50
2018-05-03T02:19:30.282Z,58.40
2018-05-03T02:21:57.843Z,59.60
2018-05-03T02:24:25.458Z,62.20
2018-05-03T02:26:52.995Z,59.70
2018-05-03T02:29:20.578Z,58.40
2018-05-03T02:31:48.126Z,58.90
2018-05-03T02:34:15.710Z,59.40
2018-05-03T02:36:43.271Z,60.80
2018-05-03T02:39:10.866Z,59.00
2018-05-03T02:41:38.421Z,60.00
2018-05-03T02:44:06.047Z,60.20
2018-05-03T02:46:33.602Z,60.10
2018-05-03T02:49:01.195Z,62.10
2018-05-03T02:51:28.749Z,61.30
2018-05-03T02:53:56.302Z,61.30
2018-05-03T02:56:23.896Z,58.70
2018-05-03T02:59:03.990Z,59.60
2018-05-03T03:01:49.034Z,59.50
2018-05-03T03:04:34.073Z,64.00
2018-05-03T03:07:19.754Z,62.30
2018-05-03T03:10:17.274Z,60.80
2018-05-03T03:12:59.064Z,60.80
2018-05-03T03:15:42.104Z,60.30
2018-05-03T03:18:27.345Z,62.30
2018-05-03T03:21:12.306Z,58.60
2018-05-03T03:24:11.184Z,56.20
2018-05-03T03:27:06.848Z,59.20
2018-05-03T03:29:46.225Z,59.00
2018-05-03T03:32:26.313Z,61.60
2018-05-03T03:35:18.283Z,61.40
2018-05-03T03:37:58.120Z,60.20
2018-05-03T03:40:37.617Z,61.10
2018-05-03T03:43:06.087Z,60.10
2018-05-03T03:45:33.681Z,61.10
2018-05-03T03:48:01.233Z,59.10
2018-05-03T03:50:28.817Z,60.00
2018-05-03T03:52:56.369Z,63.00
2018-05-03T03:55:23.973Z,61.00
2018-05-03T03:57:51.560Z,60.20
2018-05-03T04:00:19.116Z,59.90
2018-05-03T04:02:46.689Z,61.70
2018-05-03T04:05:14.244Z,62.30
2018-05-03T04:07:41.818Z,61.60
2018-05-03T04:10:09.379Z,61.40
2018-05-03T04:12:36.966Z,61.10
2018-05-03T04:15:04.552Z,62.40
2018-05-03T04:17:43.895Z,59.30
2018-05-03T04:20:30.117Z,60.40
2018-05-03T04:23:01.074Z,58.90
2018-05-03T04:25:40.289Z,58.30
2018-05-03T04:28:07.884Z,60.00
2018-05-03T04:30:35.438Z,59.60
2018-05-03T04:33:03.022Z,59.40
2018-05-03T04:35:30.577Z,61.10
2018-05-03T04:37:58.917Z,59.30
2018-05-03T04:40:26.470Z,59.30
2018-05-03T04:42:54.059Z,58.40
2018-05-03T04:45:22.400Z,59.40
2018-05-03T04:47:49.987Z,59.50
2018-05-03T04:50:17.547Z,59.10
2018-05-03T04:52:46.007Z,62.30
2018-05-03T04:55:13.565Z,58.50
2018-05-03T04:57:41.149Z,60.10
2018-05-03T05:00:08.706Z,62.50
2018-05-03T05:02:36.286Z,58.90
2018-05-03T05:05:03.878Z,61.50
2018-05-03T05:07:31.645Z,59.70
2018-05-03T05:09:59.221Z,60.30
2018-05-03T05:12:27.570Z,59.60
2018-05-03T05:14:55.129Z,60.20
2018-05-03T05:17:22.729Z,59.30
2018-05-03T05:19:50.293Z,61.50
2018-05-03T05:22:17.850Z,59.10
2018-05-03T05:24:45.426Z,60.80
2018-05-03T05:27:12.977Z,58.30
2018-05-03T05:29:40.559Z,58.70
2018-05-03T05:32:09.001Z,60.60
2018-05-03T05:34:36.622Z,60.50
2018-05-03T05:37:04.181Z,57.20
2018-05-03T05:39:31.759Z,57.70
2018-05-03T05:41:59.305Z,59.80
2018-05-03T05:44:26.887Z,59.60
2018-05-03T05:46:54.442Z,58.30
2018-05-03T05:49:22.026Z,59.60
2018-05-03T05:51:49.595Z,61.80
2018-05-03T05:54:17.174Z,61.70
2018-05-03T05:56:44.817Z,62.50
2018-05-03T05:59:12.329Z,62.70
2018-05-03T06:01:39.878Z,62.90
2018-05-03T06:04:07.511Z,60.60
2018-05-03T06:06:35.029Z,58.70
2018-05-03T06:09:02.614Z,59.50
2018-05-03T06:11:31.935Z,62.20
2018-05-03T06:13:59.515Z,62.20
2018-05-03T06:16:27.065Z,62.70
2018-05-03T06:18:54.646Z,59.00
2018-05-03T06:21:22.204Z,59.20
2018-05-03T06:23:51.402Z,59.70
2018-05-03T06:26:18.952Z,60.00
2018-05-03T06:28:46.541Z,60.20
2018-05-03T06:31:15.402Z,59.30
2018-05-03T06:33:43.881Z,57.90
2018-05-03T06:36:11.454Z,60.20
2018-05-03T06:38:39.010Z,58.90
2018-05-03T06:41:07.854Z,59.60
2018-05-03T06:43:35.505Z,61.80
2018-05-03T06:46:03.358Z,60.60
2018-05-03T06:48:31.005Z,59.70
2018-05-03T06:50:58.623Z,61.30
2018-05-03T06:53:26.175Z,61.80
2018-05-03T06:55:53.945Z,60.40
2018-05-03T06:58:21.502Z,59.50
2018-05-03T07:00:49.126Z,60.70
2018-05-03T07:03:17.446Z,58.60
2018-05-03T07:05:45.025Z,58.60
2018-05-03T07:08:13.354Z,59.60
2018-05-03T07:10:40.934Z,59.60
2018-05-03T07:13:08.486Z,59.00
2018-05-03T07:15:36.064Z,59.80
2018-05-03T07:18:03.613Z,58.60
2018-05-03T07:20:31.197Z,58.90
2018-05-03T07:22:58.749Z,58.20
2018-05-03T07:25:26.325Z,59.90
2018-05-03T07:27:53.873Z,58.30
2018-05-03T07:30:21.453Z,58.10
2018-05-03T07:32:49.002Z,57.80
2018-05-03T07:35:16.584Z,58.50
2018-05-03T07:37:44.137Z,58.60
2018-05-03T07:40:12.501Z,58.50
2018-05-03T07:42:40.063Z,58.40
2018-05-03T07:45:07.617Z,58.40
2018-05-03T07:47:35.195Z,57.80
2018-05-03T07:50:02.762Z,57.60
2018-05-03T07:52:32.166Z,58.00
2018-05-03T07:54:59.760Z,58.00
2018-05-03T07:57:27.341Z,57.20
2018-05-03T07:59:54.899Z,58.90
2018-05-03T08:02:23.251Z,57.10
2018-05-03T08:04:50.812Z,57.10
2018-05-03T08:07:18.405Z,57.60
2018-05-03T08:09:45.964Z,56.70
2018-05-03T08:12:13.537Z,56.80
2018-05-03T08:14:41.865Z,57.00
2018-05-03T08:17:09.513Z,57.00
2018-05-03T08:19:37.022Z,56.40
2018-05-03T08:22:04.601Z,56.40
2018-05-03T08:24:33.000Z,53.70
2018-05-03T08:27:00.581Z,53.70
2018-05-03T08:29:28.141Z,52.40
2018-05-03T08:31:55.718Z,51.60
2018-05-03T08:34:23.283Z,52.00
2018-05-03T08:36:50.864Z,51.60
2018-05-03T08:39:18.422Z,51.90
2018-05-03T08:41:46.749Z,52.70
2018-05-03T08:44:14.308Z,53.00
2018-05-03T08:46:41.893Z,52.50
2018-05-03T08:49:09.590Z,52.30
2018-05-03T08:51:37.167Z,52.60
2018-05-03T08:54:04.716Z,51.60
2018-05-03T08:56:33.040Z,52.70
2018-05-03T08:59:01.179Z,52.60
2018-05-03T09:01:28.786Z,52.40
2018-05-03T09:03:56.334Z,51.90
2018-05-03T09:06:23.886Z,52.30
2018-05-03T09:08:52.234Z,52.50
2018-05-03T09:11:20.706Z,52.40
2018-05-03T09:13:48.285Z,51.60
2018-05-03T09:16:15.843Z,51.50
2018-05-03T09:18:43.421Z,51.30
2018-05-03T09:21:10.972Z,51.80
2018-05-03T09:23:38.548Z,51.80
2018-05-03T09:26:06.112Z,52.30
2018-05-03T09:28:33.699Z,52.00
2018-05-03T09:31:02.022Z,52.20
2018-05-03T09:33:29.596Z,52.20
2018-05-03T09:35:57.153Z,52.00
2018-05-03T09:38:24.738Z,51.70
2018-05-03T09:40:52.302Z,50.20
2018-05-03T09:43:20.645Z,51.20
2018-05-03T09:45:48.198Z,51.20
2018-05-03T09:48:15.785Z,51.00
2018-05-03T09:50:43.361Z,50.60
2018-05-03T09:53:11.708Z,50.30
2018-05-03T09:55:39.271Z,50.30
2018-05-03T09:58:06.859Z,50.70
2018-05-03T10:00:34.419Z,49.60
2018-05-03T10:03:02.056Z,49.80
2018-05-03T10:05:29.609Z,49.50
2018-05-03T10:07:57.210Z,49.60
2018-05-03T10:10:24.790Z,49.30
2018-05-03T10:12:52.355Z,49.30
2018-05-03T10:15:19.937Z,49.30
2018-05-03T10:17:48.766Z,49.40
2018-05-03T10:20:16.350Z,48.80
2018-05-03T10:22:43.907Z,50.10
2018-05-03T10:25:11.490Z,49.30
2018-05-03T10:27:39.041Z,49.20
2018-05-03T10:30:06.723Z,49.70
2018-05-03T10:32:34.229Z,48.90
2018-05-03T10:35:02.584Z,49.00
2018-05-03T10:37:30.144Z,49.00
2018-05-03T10:39:58.462Z,48.80
2018-05-03T10:42:26.010Z,48.10
2018-05-03T10:44:53.603Z,48.20
2018-05-03T10:47:21.158Z,47.10
2018-05-03T10:49:48.744Z,46.70
2018-05-03T10:52:16.293Z,48.20
2018-05-03T10:54:43.878Z,48.30
2018-05-03T10:57:11.437Z,47.90
2018-05-03T10:59:39.015Z,47.90
2018-05-03T11:02:06.578Z,47.80
2018-05-03T11:04:34.168Z,46.80
2018-05-03T11:07:02.528Z,45.80
2018-05-03T11:09:30.150Z,45.70
2018-05-03T11:11:57.706Z,46.60
2018-05-03T11:14:25.291Z,46.90
2018-05-03T11:16:52.859Z,46.80
2018-05-03T11:19:21.386Z,47.20
2018-05-03T11:21:48.975Z,47.00
2018-05-03T11:24:16.533Z,45.20
2018-05-03T11:26:44.122Z,45.20
2018-05-03T11:29:11.682Z,46.10
2018-05-03T11:31:39.278Z,45.50
2018-05-03T11:34:06.830Z,46.20
2018-05-03T11:36:34.417Z,46.30
2018-05-03T11:39:02.001Z,46.30
2018-05-03T11:41:29.587Z,46.90
2018-05-03T11:43:57.146Z,45.60
2018-05-03T11:46:24.737Z,44.80
2018-05-03T11:48:52.356Z,45.20
2018-05-03T11:51:19.895Z,46.50
2018-05-03T11:53:47.458Z,44.60
2018-05-03T11:56:15.042Z,45.00
2018-05-03T11:58:42.602Z,46.20
2018-05-03T12:01:10.193Z,46.00
2018-05-03T12:03:37.750Z,45.70
2018-05-03T12:06:05.372Z,45.10
2018-05-03T12:08:32.927Z,45.90
2018-05-03T12:11:00.505Z,45.50
2018-05-03T12:13:28.067Z,44.50
2018-05-03T12:15:55.658Z,45.10
2018-05-03T12:18:23.217Z,44.40
2018-05-03T12:20:50.806Z,44.30
2018-05-03T12:23:18.365Z,44.30
2018-05-03T12:25:45.958Z,43.90
2018-05-03T12:28:13.522Z,43.70
2018-05-03T12:30:41.076Z,44.90
2018-05-03T12:33:08.653Z,44.40
2018-05-03T12:35:36.980Z,44.40
2018-05-03T12:38:04.618Z,44.30
2018-05-03T12:40:32.950Z,44.10
2018-05-03T12:43:00.551Z,44.00
2018-05-03T12:45:28.872Z,44.70
2018-05-03T12:47:56.449Z,44.70
2018-05-03T12:50:24.770Z,43.20
2018-05-03T12:52:53.122Z,43.10
2018-05-03T12:55:20.683Z,43.10
2018-05-03T12:57:48.273Z,42.60
2018-05-03T13:00:16.603Z,43.40
2018-05-03T13:02:44.446Z,43.30
2018-05-03T13:05:12.003Z,43.90
2018-05-03T13:07:39.580Z,42.70
2018-05-03T13:10:07.142Z,43.40
2018-05-03T13:12:34.731Z,42.70
2018-05-03T13:15:03.403Z,42.00
2018-05-03T13:17:32.001Z,43.70
2018-05-03T13:19:59.721Z,43.20
2018-05-03T13:22:27.301Z,42.90
2018-05-03T13:24:56.359Z,44.20
2018-05-03T13:27:23.946Z,44.10
2018-05-03T13:29:51.506Z,44.20
2018-05-03T13:32:20.682Z,44.40
2018-05-03T13:34:48.234Z,45.00
2018-05-03T13:37:15.818Z,44.20
2018-05-03T13:39:43.379Z,44.70
2018-05-03T13:42:11.504Z,44.10
2018-05-03T13:44:39.059Z,43.90
2018-05-03T13:47:07.396Z,44.20
2018-05-03T13:49:36.870Z,42.30
2018-05-03T13:52:04.723Z,43.30
2018-05-03T13:54:32.326Z,43.40
2018-05-03T13:57:01.456Z,44.00
2018-05-03T13:59:29.457Z,43.30
2018-05-03T14:01:57.562Z,43.00
2018-05-03T14:04:25.149Z,43.80
2018-05-03T14:06:52.726Z,44.10
2018-05-03T14:09:20.308Z,44.40
2018-05-03T14:11:47.863Z,43.30
2018-05-03T14:14:15.450Z,43.60
2018-05-03T14:16:43.011Z,44.20
2018-05-03T14:19:10.601Z,44.20
2018-05-03T14:21:38.925Z,44.20
2018-05-03T14:24:06.511Z,44.20
2018-05-03T14:26:34.071Z,43.60
2018-05-03T14:29:01.659Z,43.80
2018-05-03T14:31:34.701Z,43.30
2018-05-03T14:36:42.181Z,44.40
2018-05-03T14:39:11.569Z,44.40
2018-05-03T14:41:42.839Z,43.50
2018-05-03T14:44:15.093Z,44.00
2018-05-03T14:46:44.656Z,43.90
2018-05-03T14:49:13.387Z,44.30
2018-05-03T14:51:47.335Z,44.70
2018-05-03T14:54:22.080Z,44.70
2018-05-03T14:56:54.349Z,43.50
2018-05-03T14:59:22.009Z,43.40
2018-05-03T15:01:49.557Z,44.00
2018-05-03T15:04:17.142Z,43.90
2018-05-03T15:06:45.465Z,43.40
2018-05-03T15:09:13.041Z,43.30
2018-05-03T15:11:40.593Z,43.00
2018-05-03T15:14:08.173Z,43.00
2018-05-03T15:16:35.795Z,42.90
2018-05-03T15:19:03.331Z,44.20
2018-05-03T15:21:31.561Z,43.70
2018-05-03T15:24:00.725Z,43.90
2018-05-03T15:26:32.268Z,43.40
2018-05-03T15:29:02.756Z,43.40
2018-05-03T15:34:12.963Z,44.00
2018-05-03T15:36:50.305Z,43.10
2018-05-03T15:39:20.428Z,43.30
2018-05-03T15:41:48.117Z,43.30
2018-05-03T15:44:18.881Z,43.20
2018-05-03T15:46:46.621Z,43.00
2018-05-03T15:49:16.669Z,44.10
2018-05-03T15:51:49.097Z,44.30
2018-05-03T15:54:20.968Z,44.80
2018-05-03T15:56:48.601Z,44.70
2018-05-03T15:59:21.238Z,43.60
2018-05-03T16:01:49.936Z,43.60
2018-05-03T16:04:22.895Z,44.40
2018-05-03T16:06:50.563Z,45.00
2018-05-03T16:09:21.821Z,44.50
2018-05-03T16:11:52.028Z,44.60
2018-05-03T16:14:22.616Z,43.50
2018-05-03T16:16:54.561Z,44.50
2018-05-03T16:19:26.066Z,44.50
2018-05-03T16:25:02.403Z,44.80
2018-05-03T16:27:34.170Z,44.40
2018-05-03T16:30:04.615Z,44.20
2018-05-03T16:32:37.208Z,44.80
2018-05-03T16:35:08.278Z,44.90
2018-05-03T16:37:38.088Z,44.60
2018-05-03T16:40:08.393Z,45.00
2018-05-03T16:42:41.320Z,44.90
2018-05-03T16:45:14.626Z,44.90
2018-05-03T16:47:44.792Z,44.80
2018-05-03T16:50:19.829Z,45.00
2018-05-03T16:55:22.444Z,45.90
2018-05-03T16:57:50.938Z,45.20
2018-05-03T17:00:21.158Z,45.70
2018-05-03T17:02:51.834Z,45.70
2018-05-03T17:05:24.601Z,45.50
2018-05-03T17:07:52.153Z,45.70
2018-05-03T17:10:19.745Z,45.30
2018-05-03T17:12:47.288Z,45.40
2018-05-03T17:15:16.989Z,45.20
2018-05-03T17:17:44.566Z,45.20
2018-05-03T17:20:14.646Z,45.30
2018-05-03T17:22:45.868Z,45.60
2018-05-03T17:25:14.022Z,45.70
2018-05-03T17:27:44.096Z,45.10
2018-05-03T17:30:11.670Z,45.10
2018-05-03T17:32:39.249Z,45.00
2018-05-03T17:35:06.805Z,44.80
2018-05-03T17:37:34.396Z,44.90
2018-05-03T17:40:01.937Z,45.10
2018-05-03T17:42:29.517Z,45.20
2018-05-03T17:44:57.806Z,45.40
2018-05-03T17:47:25.380Z,45.50
2018-05-03T17:49:52.946Z,45.00
2018-05-03T17:52:20.522Z,45.50
2018-05-03T17:54:48.075Z,45.60
2018-05-03T17:57:15.649Z,45.80
2018-05-03T17:59:43.205Z,46.20
2018-05-03T18:02:10.778Z,46.10
2018-05-03T18:04:38.418Z,46.60
2018-05-03T18:07:05.925Z,46.60
2018-05-03T18:09:33.476Z,46.50
2018-05-03T18:12:01.041Z,46.40
2018-05-03T18:14:28.610Z,47.10
2018-05-03T18:16:56.949Z,48.80
2018-05-03T18:19:24.993Z,48.80
2018-05-03T18:21:53.103Z,49.80
2018-05-03T18:24:21.172Z,50.10
2018-05-03T18:26:48.877Z,50.40
2018-05-03T18:29:16.424Z,51.70
2018-05-03T18:31:44.736Z,49.90
2018-05-03T18:34:12.335Z,49.80
2018-05-03T18:36:39.886Z,52.60
2018-05-03T18:39:07.466Z,50.50
2018-05-03T18:41:35.146Z,52.60
2018-05-03T18:44:02.838Z,52.50
2018-05-03T18:46:30.395Z,54.00
2018-05-03T18:48:57.910Z,52.30
2018-05-03T18:51:26.225Z,51.40
2018-05-03T18:53:53.804Z,51.40
2018-05-03T18:56:21.349Z,53.90
2018-05-03T18:58:48.926Z,52.70
2018-05-03T19:01:16.586Z,52.70
2018-05-03T19:03:44.144Z,53.60
2018-05-03T19:06:11.706Z,53.30
2018-05-03T19:08:39.285Z,53.50
2018-05-03T19:11:06.839Z,53.20
2018-05-03T19:13:34.424Z,53.30
2018-05-03T19:16:02.007Z,54.40
2018-05-03T19:18:29.589Z,54.30
2018-05-03T19:20:57.170Z,53.10
2018-05-03T19:23:24.754Z,56.10
2018-05-03T19:25:53.078Z,55.40
2018-05-03T19:28:20.654Z,55.50
2018-05-03T19:30:48.213Z,54.20
2018-05-03T19:33:15.785Z,53.70
2018-05-03T19:35:43.337Z,53.20
2018-05-03T19:38:10.924Z,53.30
2018-05-03T19:40:39.243Z,54.50
2018-05-03T19:43:07.710Z,54.40
2018-05-03T19:45:35.280Z,53.00
2018-05-03T19:48:02.830Z,52.10
2018-05-03T19:50:30.410Z,54.10
2018-05-03T19:52:58.184Z,54.80
2018-05-03T19:55:25.837Z,54.30
2018-05-03T19:57:53.332Z,53.40
2018-05-03T20:00:20.901Z,55.10
2018-05-03T20:02:49.224Z,56.10
2018-05-03T20:05:16.802Z,55.90
2018-05-03T20:07:44.357Z,55.10
2018-05-03T20:10:11.930Z,53.40
2018-05-03T20:12:39.483Z,55.40
2018-05-03T20:15:07.065Z,54.60
2018-05-03T20:17:34.634Z,54.20
2018-05-03T20:20:02.976Z,55.20
2018-05-03T20:22:30.524Z,55.10
2018-05-03T20:24:58.093Z,53.90
2018-05-03T20:27:25.633Z,53.50
2018-05-03T20:29:53.205Z,56.00
2018-05-03T20:32:20.793Z,56.30
2018-05-03T20:34:48.366Z,57.70
2018-05-03T20:37:16.673Z,56.00
2018-05-03T20:39:44.283Z,56.00
2018-05-03T20:42:11.825Z,54.30
2018-05-03T20:44:40.148Z,54.40
2018-05-03T20:47:07.723Z,54.40
2018-05-03T20:49:35.272Z,53.70
2018-05-03T20:52:02.946Z,53.90
2018-05-03T20:54:30.421Z,54.20
2018-05-03T20:56:58.016Z,53.60
2018-05-03T20:59:25.573Z,54.90
2018-05-03T21:01:53.158Z,53.10
2018-05-03T21:04:21.478Z,53.40
2018-05-03T21:06:49.053Z,53.40
2018-05-03T21:09:16.608Z,54.80
2018-05-03T21:11:44.190Z,55.50
2018-05-03T21:14:11.740Z,54.90
2018-05-03T21:16:39.314Z,54.30
2018-05-03T21:19:07.628Z,54.20
2018-05-03T21:21:35.230Z,54.10
2018-05-03T21:24:02.816Z,53.80
2018-05-03T21:26:31.164Z,53.50
2018-05-03T21:28:58.720Z,53.40
2018-05-03T21:31:26.293Z,54.70
2018-05-03T21:33:53.834Z,52.60
2018-05-03T21:36:22.172Z,52.30
2018-05-03T21:38:49.725Z,52.30
2018-05-03T21:41:17.297Z,52.00
2018-05-03T21:43:44.851Z,52.50
2018-05-03T21:46:12.437Z,53.00
2018-05-03T21:48:40.761Z,52.80
2018-05-03T21:51:08.329Z,52.70
2018-05-03T21:53:35.873Z,52.90
2018-05-03T21:56:04.204Z,53.00
2018-05-03T21:58:31.758Z,52.80
2018-05-03T22:00:59.333Z,52.00
2018-05-03T22:03:26.885Z,51.70
2018-05-03T22:05:54.434Z,52.30
2018-05-03T22:08:22.006Z,52.90
2018-05-03T22:10:49.549Z,51.60
2018-05-03T22:13:17.118Z,52.60
2018-05-03T22:15:44.671Z,52.40
2018-05-03T22:18:12.270Z,51.90
2018-05-03T22:20:40.597Z,51.90
2018-05-03T22:23:08.169Z,51.60
2018-05-03T22:25:35.725Z,51.10
2018-05-03T22:28:03.302Z,51.60
2018-05-03T22:30:30.859Z,51.70
2018-05-03T22:32:58.437Z,51.70
2018-05-03T22:35:25.982Z,52.00
2018-05-03T22:37:53.550Z,51.30
2018-05-03T22:40:21.106Z,51.80
2018-05-03T22:42:48.677Z,52.80
2018-05-03T22:45:16.998Z,51.60
2018-05-03T22:47:44.583Z,51.40
2018-05-03T22:50:12.129Z,52.00
2018-05-03T22:52:39.706Z,51.60
2018-05-03T22:55:07.252Z,52.00
2018-05-03T22:57:34.825Z,51.40
2018-05-03T23:00:02.369Z,51.90
2018-05-03T23:02:29.945Z,52.20
2018-05-03T23:04:57.492Z,52.00
2018-05-03T23:07:25.129Z,52.00
2018-05-03T23:09:52.682Z,51.60
2018-05-03T23:12:20.235Z,51.60
2018-05-03T23:14:47.817Z,52.10
2018-05-03T23:17:15.369Z,52.30
2018-05-03T23:19:42.985Z,52.20
2018-05-03T23:22:10.514Z,51.20
2018-05-03T23:24:38.090Z,52.00
2018-05-03T23:27:05.646Z,51.40
2018-05-03T23:29:33.218Z,51.70
2018-05-03T23:32:01.552Z,51.90
2018-05-03T23:34:29.145Z,51.90
2018-05-03T23:36:57.460Z,52.20
2018-05-03T23:39:25.063Z,52.20
2018-05-03T23:41:52.606Z,52.00
2018-05-03T23:44:20.185Z,52.00
2018-05-03T23:46:47.729Z,51.90
2018-05-03T23:49:15.301Z,51.90
2018-05-03T23:51:42.865Z,52.00
2018-05-03T23:54:10.446Z,52.90
2018-05-03T23:56:38.765Z,52.90
2018-05-03T23:59:06.341Z,52.80
